CheckWX is a tool to help pilots better visualize weather data.  It is not intended as a substitute for an official pre-flight weather briefing.

15:06:20 UTC

KOMN METAR
Ormond Beach Municipal Airport
Ormond Beach, Florida, USA
Current

16 mins ago

KOMN 231450Z 08008KT 7SM SCT023 28/22 A3021
Observed
May-23 @ 14:50 UTC
Wind
  • 080° at 8 KTS
Visibility
7 SM
Flight Rules
VFR
Cloud Levels
  • Scattered at 2,300' AGL
Temperature
28°C / 82°F
Dewpoint
22°C / 72°F
Heat Index
30°C / 86°F
Humidity
70%
Altimeter
30.21" Hg
Pressure
1023.02 hPa
Previous

1 hour ago

KOMN 231350Z 07008KT 7SM SCT023 27/22 A3020
Observed
May-23 @ 13:50 UTC
Wind
  • 070° at 8 KTS
Visibility
7 SM
Flight Rules
VFR
Cloud Levels
  • Scattered at 2,300' AGL
Temperature
27°C / 81°F
Dewpoint
22°C / 72°F
Heat Index
29°C / 85°F
Humidity
74%
Altimeter
30.2" Hg
Pressure
1022.72 hPa
Previous

2 hours ago

KOMN 231250Z 00000KT 7SM CLR 26/22 A3019
Observed
May-23 @ 12:50 UTC
Visibility
7 SM
Flight Rules
VFR
Cloud Levels
  • Clear skies
Temperature
26°C / 79°F
Dewpoint
22°C / 72°F
Humidity
79%
Altimeter
30.19" Hg
Pressure
1022.32 hPa